Flight Track Log - Related Links

Times and Time Zones

All times are in EDT time to prevent confusion due to time zone crossing. See the AAL9703 flight status page for this flight to view local times or setup timezone preferences in your user account.

Time Position Orientation Groundspeed Altitude Reporting Facility
EDT Latitude Longitude Course Direction KTS MPH feet Rate Location/Type
Mon 12:31:56 PM 47.4944 -122.2700 148° Southeast 178 205 1,500  Level FlightAware ADS-B
Mon 12:32:12 PM 47.4818 -122.2590 149° Southeast 215 247 1,800 1,355 Climbing FlightAware ADS-B
Mon 12:32:27 PM 47.4679 -122.2460 148° Southeast 242 278 2,200 1,680 Climbing FlightAware ADS-B
Mon 12:32:37 PM 47.4581 -122.2370 148° Southeast 254 292 2,500 2,640 Climbing FlightAware ADS-B
Mon 12:32:52 PM 47.4428 -122.2220 146° Southeast 260 299 3,300 3,400 Climbing FlightAware ADS-B
Mon 12:33:07 PM 47.4275 -122.2080 148° Southeast 260 299 4,200 3,667 Climbing FlightAware ADS-B
Mon 12:33:10 PM 47.4240 -122.2050 150° Southeast 261 300 4,400 3,429 Climbing FlightAware ADS-B
Mon 12:33:14 PM 47.4197 -122.2020 155° Southeast 260 299 4,600 3,750 Climbing FlightAware ADS-B
Mon 12:33:18 PM 47.4153 -122.1990 155° Southeast 259 298 4,900 3,333 Climbing FlightAware ADS-B
Mon 12:33:23 PM 47.4103 -122.1970 165° South 259 298 5,100 2,667 Climbing FlightAware ADS-B
Mon 12:33:27 PM 47.4051 -122.1960 173° South 260 299 5,300 2,000 Climbing FlightAware ADS-B
Mon 12:33:32 PM 47.3998 -122.1950 173° South 263 303 5,400 1,579 Climbing FlightAware ADS-B
Mon 12:33:46 PM 47.3818 -122.1930 176° South 267 307 5,800 1,000 Climbing FlightAware ADS-B
Mon 12:34:02 PM 47.3629 -122.1900 174° South 270 311 5,900 720 Climbing FlightAware ADS-B
Mon 12:34:11 PM 47.3508 -122.1890 177° South 271 312 6,100 2,640 Climbing FlightAware ADS-B
Mon 12:34:27 PM 47.3320 -122.1880 178° South 261 300 7,000 3,600 Climbing FlightAware ADS-B
Mon 12:34:41 PM 47.3143 -122.1860 176° South 259 298 7,900 3,600 Climbing FlightAware ADS-B
Mon 12:34:57 PM 47.2958 -122.1850 178° South 262 302 8,800 3,290 Climbing FlightAware ADS-B
Mon 12:35:12 PM 47.2775 -122.1830 176° South 267 307 9,600 2,533 Climbing FlightAware ADS-B
Mon 12:35:42 PM 47.2385 -122.1790 176° South 297 342 10,700 2,200 Climbing FlightAware ADS-B
Mon 12:36:12 PM 47.1942 -122.1760 177° South 329 379 11,800 2,900 Climbing FlightAware ADS-B
Mon 12:36:42 PM 47.1477 -122.1710 176° South 336 387 13,600 3,344 Climbing FlightAware ADS-B
Mon 12:37:13 PM 47.0998 -122.1660 176° South 349 402 15,200 3,136 Climbing FlightAware ADS-B
Mon 12:37:26 PM 47.0780 -122.1640 176° South 354 407 15,900 3,310 Climbing FlightAware ADS-B
Mon 12:37:42 PM 47.0522 -122.1570 170° South 358 412 16,800 3,391 Climbing FlightAware ADS-B
Mon 12:37:49 PM 47.0408 -122.1520 163° South 363 418 17,200 3,600 Climbing FlightAware ADS-B
Mon 12:37:52 PM 47.0360 -122.1490 157° South 364 419 17,400 3,000 Climbing FlightAware ADS-B
Mon 12:37:57 PM 47.0293 -122.1440 153° Southeast 367 422 17,600 3,000 Climbing FlightAware ADS-B
Mon 12:38:02 PM 47.0224 -122.1360 142° Southeast 369 425 17,900 3,257 Climbing FlightAware ADS-B
Mon 12:38:32 PM 46.9821 -122.0870 140° Southeast 377 434 19,500 3,000 Climbing FlightAware ADS-B
Mon 12:39:02 PM 46.9415 -122.0370 140° Southeast 390 449 20,900 2,557 Climbing FlightAware ADS-B
Mon 12:39:33 PM 46.8988 -121.9840 140° Southeast 401 461 22,100 2,459 Climbing FlightAware ADS-B
Mon 12:40:03 PM 46.8555 -121.9300 140° Southeast 410 472 23,400 2,500 Climbing FlightAware ADS-B
Mon 12:40:33 PM 46.8116 -121.8760 140° Southeast 416 479 24,600 2,500 Climbing FlightAware ADS-B
Mon 12:41:03 PM 46.7675 -121.8210 139° Southeast 418 481 25,900 2,381 Climbing FlightAware ADS-B
Mon 12:41:36 PM 46.7190 -121.7620 140° Southeast 425 489 27,100 2,000 Climbing FlightAware ADS-B
Mon 12:42:06 PM 46.6727 -121.7050 140° Southeast 434 499 28,000 1,784 Climbing FlightAware ADS-B
Mon 12:42:50 PM 46.6044 -121.6210 140° Southeast 442 509 29,300 2,108 Climbing FlightAware ADS-B
Mon 12:43:20 PM 46.5575 -121.5640 140° Southeast 439 505 30,600 2,500 Climbing FlightAware ADS-B
Mon 12:43:50 PM 46.5107 -121.5070 140° Southeast 433 498 31,800 2,361 Climbing FlightAware ADS-B
Mon 12:44:21 PM 46.4644 -121.4510 140° Southeast 429 494 33,000 2,226 Climbing FlightAware ADS-B
Mon 12:44:52 PM 46.4178 -121.3950 140° Southeast 426 490 34,100 1,941 Climbing FlightAware ADS-B
Mon 12:45:29 PM 46.3628 -121.3250 139° Southeast 428 493 35,200 1,745 Climbing FlightAware ADS-B
Mon 12:45:47 PM 46.3388 -121.2840 130° Southeast 434 499 35,700 1,600 Climbing FlightAware ADS-B
Mon 12:45:59 PM 46.3254 -121.2550 124° Southeast 438 504 36,000 1,286 Climbing FlightAware ADS-B
Mon 12:46:29 PM 46.2960 -121.1810 120° Southeast 440 506 36,600 1,263 Climbing FlightAware ADS-B
Mon 12:46:37 PM 46.2864 -121.1580 121° Southeast 441 507 36,800 1,500 Climbing FlightAware ADS-B
Mon 12:47:09 PM 46.2531 -121.0770 121° Southeast 441 507 37,600 1,258 Climbing FlightAware ADS-B
Mon 12:47:39 PM 46.2230 -121.0030 120° Southeast 442 509 38,100 1,067 Climbing FlightAware ADS-B
Mon 12:47:54 PM 46.2070 -120.9640 121° Southeast 443 510 38,400 1,440 Climbing FlightAware ADS-B
Mon 12:48:29 PM 46.1705 -120.8770 121° Southeast 438 504 39,300 1,184 Climbing FlightAware ADS-B
Mon 12:49:10 PM 46.1277 -120.7740 121° Southeast 441 507 39,900 733 Climbing FlightAware ADS-B
Mon 12:49:59 PM 46.0770 -120.6490 120° Southeast 450 518 40,400 610 Climbing FlightAware ADS-B
Mon 12:50:09 PM 46.0665 -120.6240 121° Southeast 451 519 40,500 514 Climbing FlightAware ADS-B
Mon 12:51:09 PM 46.0030 -120.4690 120° Southeast 454 522 41,000 326 Climbing FlightAware ADS-B
Mon 12:51:41 PM 45.9680 -120.3860 121° Southeast 451 519 41,000  Level FlightAware ADS-B
Mon 12:52:17 PM 45.9290 -120.2930 121° Southeast 452 520 41,000  Level FlightAware ADS-B
Mon 12:52:53 PM 45.8910 -120.2000 120° Southeast 453 521 41,000  Level FlightAware ADS-B
Mon 12:53:25 PM 45.8580 -120.1200 121° Southeast 453 521 41,000  Level FlightAware ADS-B
Mon 12:54:03 PM 45.8160 -120.0210 121° Southeast 453 521 41,000  Level FlightAware ADS-B
Mon 12:54:39 PM 45.7770 -119.9280 121° Southeast 452 520 41,000  Level FlightAware ADS-B
Mon 12:55:15 PM 45.7390 -119.8370 121° Southeast 451 519 41,000  Level FlightAware ADS-B
Mon 12:55:47 PM 45.7040 -119.7530 121° Southeast 451 519 41,000  Level FlightAware ADS-B
Mon 12:56:23 PM 45.6670 -119.6660 121° Southeast 451 519 41,000  Level FlightAware ADS-B
Mon 12:56:59 PM 45.6270 -119.5710 121° Southeast 450 518 41,000  Level FlightAware ADS-B
Mon 12:57:35 PM 45.5870 -119.4780 122° Southeast 449 517 41,000  Level FlightAware ADS-B
Mon 12:58:11 PM 45.5500 -119.3900 121° Southeast 448 516 41,000  Level FlightAware ADS-B
Mon 12:58:43 PM 45.5150 -119.3100 122° Southeast 447 514 41,000  Level FlightAware ADS-B
Mon 12:59:15 PM 45.4800 -119.2280 121° Southeast 446 513 41,000  Level FlightAware ADS-B
Mon 12:59:51 PM 45.4420 -119.1390 121° Southeast 445 512 41,000  Level FlightAware ADS-B
Mon 01:00:29 PM 45.4010 -119.0440 122° Southeast 445 512 41,000  Level FlightAware ADS-B
Mon 01:01:05 PM 45.3620 -118.9540 122° Southeast 444 511 41,000  Level FlightAware ADS-B
Mon 01:01:37 PM 45.3280 -118.8760 122° Southeast 444 511 41,000  Level FlightAware ADS-B
Mon 01:02:13 PM 45.2910 -118.7910 122° Southeast 444 511 41,000  Level FlightAware ADS-B
Mon 01:02:49 PM 45.2510 -118.7010 122° Southeast 444 511 41,000  Level FlightAware ADS-B
Mon 01:03:23 PM 45.2130 -118.6130 121° Southeast 444 511 41,000  Level FlightAware ADS-B
Mon 01:04:01 PM 45.1740 -118.5250 122° Southeast 443 510 41,000  Level FlightAware ADS-B
Mon 01:04:31 PM 45.1400 -118.4480 122° Southeast 443 510 41,000  Level FlightAware ADS-B
Mon 01:05:09 PM 45.0980 -118.3540 122° Southeast 443 510 41,000  Level FlightAware ADS-B
Mon 01:05:47 PM 45.0570 -118.2600 122° Southeast 441 507 41,000  Level FlightAware ADS-B
Mon 01:06:20 PM 45.0220 -118.1830 123° Southeast 440 506 41,000  Level FlightAware ADS-B
Mon 01:07:03 PM 44.9740 -118.0750 122° Southeast 441 507 41,000  Level FlightAware ADS-B
Mon 01:07:39 PM 44.9350 -117.9890 123° Southeast 440 506 41,000  Level FlightAware ADS-B
Mon 01:08:13 PM 44.8980 -117.9050 122° Southeast 441 507 41,000  Level FlightAware ADS-B
Mon 01:08:47 PM 44.8620 -117.8240 122° Southeast 442 509 41,000  Level FlightAware ADS-B
Mon 01:09:21 PM 44.8240 -117.7400 123° Southeast 442 509 41,000  Level FlightAware ADS-B
Mon 01:09:57 PM 44.7850 -117.6550 123° Southeast 444 511 41,000  Level FlightAware ADS-B
Mon 01:10:33 PM 44.7440 -117.5660 123° Southeast 444 511 41,000  Level FlightAware ADS-B
Mon 01:11:07 PM 44.7070 -117.4830 122° Southeast 445 512 41,000  Level FlightAware ADS-B
Mon 01:11:41 PM 44.6690 -117.4000 123° Southeast 446 513 41,000  Level FlightAware ADS-B
Mon 01:12:15 PM 44.6310 -117.3190 123° Southeast 447 514 41,000  Level FlightAware ADS-B
Mon 01:12:51 PM 44.5900 -117.2290 123° Southeast 448 516 41,000  Level FlightAware ADS-B
Mon 01:13:25 PM 44.5530 -117.1490 123° Southeast 449 517 41,000  Level FlightAware ADS-B
Mon 01:14:03 PM 44.5090 -117.0550 123° Southeast 450 518 41,000  Level FlightAware ADS-B
Mon 01:14:37 PM 44.4710 -116.9720 123° Southeast 450 518 41,000  Level FlightAware ADS-B
Mon 01:15:13 PM 44.4300 -116.8850 123° Southeast 450 518 41,000  Level FlightAware ADS-B
Mon 01:15:49 PM 44.3890 -116.7970 123° Southeast 450 518 41,000  Level FlightAware ADS-B
Mon 01:16:20 PM 44.3540 -116.7230 123° Southeast 449 517 41,000  Level FlightAware ADS-B
Mon 01:16:57 PM 44.3120 -116.6320 123° Southeast 449 517 41,000  Level FlightAware ADS-B
Mon 01:17:31 PM 44.2730 -116.5500 124° Southeast 448 516 41,000  Level FlightAware ADS-B
Mon 01:18:07 PM 44.2320 -116.4640 124° Southeast 447 514 41,000  Level FlightAware ADS-B
Mon 01:18:39 PM 44.1960 -116.3870 123° Southeast 447 514 41,000  Level FlightAware ADS-B
Mon 01:19:15 PM 44.1560 -116.3020 123° Southeast 446 513 41,000  Level FlightAware ADS-B
Mon 01:19:51 PM 44.1140 -116.2160 124° Southeast 446 513 41,000  Level FlightAware ADS-B
Mon 01:20:27 PM 44.0730 -116.1290 123° Southeast 446 513 41,000  Level FlightAware ADS-B
Mon 01:21:03 PM 44.0320 -116.0450 124° Southeast 446 513 41,000  Level FlightAware ADS-B
Mon 01:21:39 PM 43.9910 -115.9580 123° Southeast 447 514 41,000  Level FlightAware ADS-B
Mon 01:22:11 PM 43.9530 -115.8800 124° Southeast 446 513 41,000  Level FlightAware ADS-B
Mon 01:22:47 PM 43.9120 -115.7960 124° Southeast 447 514 41,000  Level FlightAware ADS-B
Mon 01:23:19 PM 43.8760 -115.7210 124° Southeast 448 516 41,000  Level FlightAware ADS-B
Mon 01:23:55 PM 43.8330 -115.6340 124° Southeast 447 514 41,000  Level FlightAware ADS-B
Mon 01:24:31 PM 43.7920 -115.5500 124° Southeast 447 514 41,000  Level FlightAware ADS-B
Mon 01:25:07 PM 43.7510 -115.4650 124° Southeast 448 516 41,000  Level FlightAware ADS-B
Mon 01:25:39 PM 43.7130 -115.3890 125° Southeast 448 516 41,000  Level FlightAware ADS-B
Mon 01:26:17 PM 43.6690 -115.2990 124° Southeast 449 517 41,000  Level FlightAware ADS-B
Mon 01:26:50 PM 43.6310 -115.2210 124° Southeast 449 517 41,000  Level FlightAware ADS-B
Mon 01:27:25 PM 43.5890 -115.1370 125° Southeast 450 518 41,000  Level FlightAware ADS-B
Mon 01:27:59 PM 43.5500 -115.0580 124° Southeast 451 519 41,000  Level FlightAware ADS-B
Mon 01:28:36 PM 43.5070 -114.9710 124° Southeast 451 519 41,000  Level FlightAware ADS-B
Mon 01:29:12 PM 43.4640 -114.8850 125° Southeast 452 520 41,000  Level FlightAware ADS-B
Mon 01:29:48 PM 43.4210 -114.8000 125° Southeast 453 521 41,000  Level FlightAware ADS-B
Mon 01:30:24 PM 43.3790 -114.7150 124° Southeast 453 521 41,000  Level FlightAware ADS-B
Mon 01:30:56 PM 43.3410 -114.6390 124° Southeast 453 521 41,000  Level FlightAware ADS-B
Mon 01:31:28 PM 43.3020 -114.5640 126° Southeast 452 520 41,000  Level FlightAware ADS-B
Mon 01:32:08 PM 43.2540 -114.4670 124° Southeast 452 520 41,000  Level FlightAware ADS-B
Mon 01:32:40 PM 43.2160 -114.3920 125° Southeast 454 522 41,000  Level FlightAware ADS-B
Mon 01:33:18 PM 43.1710 -114.3050 125° Southeast 453 521 41,000  Level FlightAware ADS-B
Mon 01:33:54 PM 43.1270 -114.2190 125° Southeast 455 524 41,000  Level FlightAware ADS-B
Mon 01:34:26 PM 43.0880 -114.1430 125° Southeast 456 525 41,000  Level FlightAware ADS-B
Mon 01:35:02 PM 43.0450 -114.0580 125° Southeast 458 527 41,000  Level FlightAware ADS-B
Mon 01:35:36 PM 43.0040 -113.9790 125° Southeast 458 527 41,000  Level FlightAware ADS-B
Mon 01:36:12 PM 42.9600 -113.8930 125° Southeast 459 528 41,000  Level FlightAware ADS-B
Mon 01:36:48 PM 42.9160 -113.8090 126° Southeast 458 527 41,000  Level FlightAware ADS-B
Mon 01:37:05 PM 42.8947 -113.7680 125° Southeast 458 527 41,000  Level FlightAware ADS-B
Mon 01:37:58 PM 42.8310 -113.6460 125° Southeast 453 521 41,000  Level FlightAware ADS-B
Mon 01:38:34 PM 42.7870 -113.5610 125° Southeast 453 521 41,000  Level FlightAware ADS-B
Mon 01:39:06 PM 42.7490 -113.4890 126° Southeast 452 520 41,000  Level FlightAware ADS-B
Mon 01:39:40 PM 42.7070 -113.4090 126° Southeast 453 521 41,000  Level FlightAware ADS-B
Mon 01:40:16 PM 42.6630 -113.3250 125° Southeast 451 519 41,000  Level FlightAware ADS-B
Mon 01:40:54 PM 42.6180 -113.2390 125° Southeast 450 518 41,000  Level FlightAware ADS-B
Mon 01:41:28 PM 42.5770 -113.1610 126° Southeast 450 518 41,000  Level FlightAware ADS-B
Mon 01:42:00 PM 42.5370 -113.0870 126° Southeast 449 517 41,000  Level FlightAware ADS-B
Mon 01:42:36 PM 42.4930 -113.0040 126° Southeast 449 517 41,000  Level FlightAware ADS-B
Mon 01:43:10 PM 42.4520 -112.9270 126° Southeast 449 517 41,000  Level FlightAware ADS-B
Mon 01:43:48 PM 42.4060 -112.8410 126° Southeast 451 519 41,000  Level FlightAware ADS-B
Mon 01:44:21 PM 42.3670 -112.7680 126° Southeast 453 521 41,000  Level FlightAware ADS-B
Mon 01:44:50 PM 42.3310 -112.7020 126° Southeast 456 525 41,000  Level FlightAware ADS-B
Mon 01:45:33 PM 42.2780 -112.6030 126° Southeast 460 529 41,000  Level FlightAware ADS-B
Mon 01:46:07 PM 42.2340 -112.5200 126° Southeast 461 531 41,000  Level FlightAware ADS-B
Mon 01:46:42 PM 42.1930 -112.4450 126° Southeast 461 531 41,000  Level FlightAware ADS-B
Mon 01:47:23 PM 42.1377 -112.3430 126° Southeast 463 533 41,000  Level FlightAware ADS-B
Mon 01:48:28 PM 42.0570 -112.1950 126° Southeast 460 529 41,000  Level FlightAware ADS-B
Mon 01:48:55 PM 42.0216 -112.1310 127° Southeast 461 531 41,000  Level FlightAware ADS-B
Mon 01:49:26 PM 41.9823 -112.0600 127° Southeast 462 532 41,000  Level FlightAware ADS-B
Mon 01:49:57 PM 41.9437 -111.9900 127° Southeast 462 532 41,000  Level FlightAware ADS-B
Mon 01:50:28 PM 41.9044 -111.9180 126° Southeast 463 533 41,000  Level FlightAware ADS-B
Mon 01:51:00 PM 41.8630 -111.8430 127° Southeast 465 535 41,000  Level FlightAware ADS-B
Mon 01:51:37 PM 41.8162 -111.7590 127° Southeast 465 535 41,000  Level FlightAware ADS-B
Mon 01:52:10 PM 41.7740 -111.6830 127° Southeast 464 534 41,000  Level FlightAware ADS-B
Mon 01:52:24 PM 41.7557 -111.6500 127° Southeast 465 535 41,000  Level FlightAware ADS-B
Mon 01:52:54 PM 41.7171 -111.5810 127° Southeast 464 534 41,000  Level FlightAware ADS-B
Mon 01:53:25 PM 41.6781 -111.5110 127° Southeast 463 533 41,000  Level FlightAware ADS-B
Mon 01:53:56 PM 41.6380 -111.4400 127° Southeast 463 533 41,000  Level FlightAware ADS-B
Mon 01:54:30 PM 41.5939 -111.3610 127° Southeast 465 535 41,000  Level FlightAware ADS-B
Mon 01:55:00 PM 41.5552 -111.2920 127° Southeast 461 531 41,000  Level FlightAware ADS-B
Mon 01:55:37 PM 41.5084 -111.2090 127° Southeast 461 531 41,000  Level FlightAware ADS-B
Mon 01:56:07 PM 41.4698 -111.1410 127° Southeast 460 529 41,000  Level FlightAware ADS-B
Mon 01:56:40 PM 41.4283 -111.0680 127° Southeast 459 528 41,000  Level FlightAware ADS-B
Mon 01:57:10 PM 41.3897 -111.0000 127° Southeast 460 529 41,000  Level FlightAware ADS-B
Mon 01:57:40 PM 41.3510 -110.9320 127° Southeast 462 532 41,000  Level FlightAware ADS-B
Mon 01:58:10 PM 41.3117 -110.8630 127° Southeast 465 535 41,000  Level FlightAware ADS-B
Mon 01:58:46 PM 41.2649 -110.7810 127° Southeast 466 536 41,000  Level FlightAware ADS-B
Mon 01:59:16 PM 41.2255 -110.7120 127° Southeast 467 537 41,000  Level FlightAware ADS-B
Mon 01:59:53 PM 41.1771 -110.6280 127° Southeast 467 537 41,000  Level FlightAware ADS-B
Mon 02:00:24 PM 41.1369 -110.5590 128° Southeast 467 537 41,000  Level FlightAware ADS-B
Mon 02:00:55 PM 41.0966 -110.4890 127° Southeast 469 540 41,000  Level FlightAware ADS-B
Mon 02:01:25 PM 41.0562 -110.4190 127° Southeast 470 541 41,000  Level FlightAware ADS-B
Mon 02:02:00 PM 41.0108 -110.3410 128° Southeast 471 542 41,000  Level FlightAware ADS-B
Mon 02:02:30 PM 40.9706 -110.2720 128° Southeast 471 542 41,000  Level FlightAware ADS-B
Mon 02:03:08 PM 40.9206 -110.1860 128° Southeast 472 543 41,000  Level FlightAware ADS-B
Mon 02:03:39 PM 40.8784 -110.1140 128° Southeast 473 544 41,000  Level FlightAware ADS-B
Mon 02:04:12 PM 40.8339 -110.0380 128° Southeast 475 547 41,000  Level FlightAware ADS-B
Mon 02:04:59 PM 40.7780 -109.9440 128° Southeast 476 548 41,000  Level FlightAware ADS-B
Mon 02:05:33 PM 40.7270 -109.8580 128° Southeast 477 549 41,000  Level FlightAware ADS-B
Mon 02:06:18 PM 40.6670 -109.7550 128° Southeast 477 549 41,000  Level FlightAware ADS-B
Mon 02:06:50 PM 40.6270 -109.6880 128° Southeast 477 549 41,000  Level FlightAware ADS-B
Mon 02:07:25 PM 40.5750 -109.6010 128° Southeast 476 548 41,000  Level FlightAware ADS-B
Mon 02:07:59 PM 40.5320 -109.5290 128° Southeast 477 549 41,000  Level FlightAware ADS-B
Mon 02:08:40 PM 40.4730 -109.4290 128° Southeast 478 550 41,000  Level FlightAware ADS-B
Mon 02:09:12 PM 40.4360 -109.3670 128° Southeast 479 551 41,000  Level FlightAware ADS-B
Mon 02:09:49 PM 40.3790 -109.2720 128° Southeast 480 552 41,000  Level FlightAware ADS-B
Mon 02:10:20 PM 40.3390 -109.2060 128° Southeast 482 555 41,000  Level FlightAware ADS-B
Mon 02:10:56 PM 40.2850 -109.1180 129° Southeast 484 557 41,000  Level FlightAware ADS-B
Mon 02:11:30 PM 40.2410 -109.0440 128° Southeast 484 557 41,000  Level FlightAware ADS-B
Mon 02:12:07 PM 40.1880 -108.9570 129° Southeast 485 558 41,000  Level FlightAware ADS-B
Mon 02:12:38 PM 40.1460 -108.8880 129° Southeast 485 558 41,000  Level FlightAware ADS-B
Mon 02:13:10 PM 40.1020 -108.8150 128° Southeast 485 558 41,000  Level FlightAware ADS-B
Mon 02:13:41 PM 40.0560 -108.7410 129° Southeast 485 558 41,000  Level FlightAware ADS-B
Mon 02:14:19 PM 40.0040 -108.6560 129° Southeast 483 556 41,000  Level FlightAware ADS-B
Mon 02:15:01 PM 39.9460 -108.5610 129° Southeast 485 558 41,000  Level FlightAware ADS-B
Mon 02:15:38 PM 39.8940 -108.4780 129° Southeast 483 556 41,000  Level FlightAware ADS-B
Mon 02:16:19 PM 39.8360 -108.3840 129° Southeast 484 557 41,000  Level FlightAware ADS-B
Mon 02:17:02 PM 39.7760 -108.2870 129° Southeast 480 552 41,000  Level FlightAware ADS-B
Mon 02:17:32 PM 39.7320 -108.2160 129° Southeast 481 554 41,000  Level FlightAware ADS-B
Mon 02:18:10 PM 39.6800 -108.1320 129° Southeast 482 555 41,000  Level FlightAware ADS-B
Mon 02:18:46 PM 39.6290 -108.0510 129° Southeast 483 556 41,000  Level FlightAware ADS-B
Mon 02:19:26 PM 39.5720 -107.9600 129° Southeast 484 557 41,000  Level FlightAware ADS-B
Mon 02:20:11 PM 39.5110 -107.8620 129° Southeast 484 557 41,000  Level FlightAware ADS-B
Mon 02:20:49 PM 39.4610 -107.7840 130° Southeast 484 557 41,000  Level FlightAware ADS-B
Mon 02:21:29 PM 39.3990 -107.6850 129° Southeast 484 557 41,000  Level FlightAware ADS-B
Mon 02:21:36 PM 39.3868 -107.6660 130° Southeast 484 557 41,000  Level FlightAware ADS-B
Mon 02:22:07 PM 39.3439 -107.5990 130° Southeast 484 557 41,000  Level FlightAware ADS-B
Mon 02:22:37 PM 39.3014 -107.5320 129° Southeast 482 555 41,000  Level FlightAware ADS-B
Mon 02:23:09 PM 39.2562 -107.4610 129° Southeast 480 552 41,000  Level FlightAware ADS-B
Mon 02:23:40 PM 39.2131 -107.3930 129° Southeast 478 550 41,000  Level FlightAware ADS-B
Mon 02:24:16 PM 39.1627 -107.3140 129° Southeast 475 547 41,000  Level FlightAware ADS-B
Mon 02:24:47 PM 39.1189 -107.2460 130° Southeast 472 543 41,000  Level FlightAware ADS-B
Mon 02:25:17 PM 39.0769 -107.1810 130° Southeast 470 541 41,000  Level FlightAware ADS-B
Mon 02:25:48 PM 39.0349 -107.1160 130° Southeast 470 541 41,000  Level FlightAware ADS-B
Mon 02:26:19 PM 38.9922 -107.0490 129° Southeast 468 539 41,000  Level FlightAware ADS-B
Mon 02:26:49 PM 38.9506 -106.9850 130° Southeast 469 540 41,000  Level FlightAware ADS-B
Mon 02:27:21 PM 38.9063 -106.9160 130° Southeast 467 537 41,000  Level FlightAware ADS-B
Mon 02:27:52 PM 38.8642 -106.8520 130° Southeast 468 539 41,000  Level FlightAware ADS-B
Mon 02:28:22 PM 38.8216 -106.7860 130° Southeast 470 541 41,000  Level FlightAware ADS-B
Mon 02:28:54 PM 38.7775 -106.7190 130° Southeast 469 540 41,000  Level FlightAware ADS-B
Mon 02:29:24 PM 38.7351 -106.6540 130° Southeast 470 541 41,000  Level FlightAware ADS-B
Mon 02:29:55 PM 38.6930 -106.5890 130° Southeast 469 540 41,000  Level FlightAware ADS-B
Mon 02:30:25 PM 38.6508 -106.5250 130° Southeast 468 539 41,000  Level FlightAware ADS-B
Mon 02:30:55 PM 38.6085 -106.4610 130° Southeast 468 539 41,000  Level FlightAware ADS-B
Mon 02:31:31 PM 38.5582 -106.3850 130° Southeast 469 540 41,000  Level FlightAware ADS-B
Mon 02:32:01 PM 38.5163 -106.3210 130° Southeast 471 542 41,000  Level FlightAware ADS-B
Mon 02:32:33 PM 38.4716 -106.2530 130° Southeast 471 542 41,000  Level FlightAware ADS-B
Mon 02:33:05 PM 38.4269 -106.1860 130° Southeast 474 545 41,000  Level FlightAware ADS-B
Mon 02:33:35 PM 38.3843 -106.1210 130° Southeast 473 544 41,000  Level FlightAware ADS-B
Mon 02:34:06 PM 38.3414 -106.0570 131° Southeast 475 547 41,000  Level FlightAware ADS-B
Mon 02:34:36 PM 38.2984 -105.9930 131° Southeast 475 547 41,000  Level FlightAware ADS-B
Mon 02:35:06 PM 38.2555 -105.9290 130° Southeast 476 548 41,000  Level FlightAware ADS-B
Mon 02:35:37 PM 38.2108 -105.8620 130° Southeast 475 547 41,000  Level FlightAware ADS-B
Mon 02:36:09 PM 38.1664 -105.7960 131° Southeast 475 547 41,000  Level FlightAware ADS-B
Mon 02:36:40 PM 38.1217 -105.7290 130° Southeast 475 547 41,000  Level FlightAware ADS-B
Mon 02:37:10 PM 38.0785 -105.6650 131° Southeast 475 547 41,000  Level FlightAware ADS-B
Mon 02:37:41 PM 38.0355 -105.6010 130° Southeast 474 545 41,000  Level FlightAware ADS-B
Mon 02:38:12 PM 37.9907 -105.5350 131° Southeast 474 545 41,000  Level FlightAware ADS-B
Mon 02:38:43 PM 37.9467 -105.4700 131° Southeast 473 544 41,000  Level FlightAware ADS-B
Mon 02:39:13 PM 37.9038 -105.4070 131° Southeast 473 544 41,000  Level FlightAware ADS-B
Mon 02:39:44 PM 37.8599 -105.3420 131° Southeast 472 543 41,000  Level FlightAware ADS-B
Mon 02:40:15 PM 37.8159 -105.2780 131° Southeast 472 543 41,000  Level FlightAware ADS-B
Mon 02:40:45 PM 37.7728 -105.2150 131° Southeast 474 545 41,000  Level FlightAware ADS-B
Mon 02:41:15 PM 37.7297 -105.1520 131° Southeast 474 545 41,000  Level FlightAware ADS-B
Mon 02:41:48 PM 37.6829 -105.0840 131° Southeast 473 544 41,000  Level FlightAware ADS-B
Mon 02:42:19 PM 37.6382 -105.0190 131° Southeast 471 542 41,000  Level FlightAware ADS-B
Mon 02:43:08 PM 37.5698 -104.9200 131° Southeast 467 537 41,000  Level FlightAware ADS-B
Mon 02:43:40 PM 37.5240 -104.8530 131° Southeast 468 539 41,000  Level FlightAware ADS-B
Mon 02:44:13 PM 37.4767 -104.7850 131° Southeast 471 542 41,000  Level FlightAware ADS-B
Mon 02:44:56 PM 37.4154 -104.6970 131° Southeast 471 542 41,000  Level FlightAware ADS-B
Mon 02:45:55 PM 37.3302 -104.5740 131° Southeast 471 542 41,000  Level FlightAware ADS-B
Mon 02:46:53 PM 37.2477 -104.4560 131° Southeast 471 542 41,000  Level FlightAware ADS-B
Mon 02:47:55 PM 37.1636 -104.3210 128° Southeast 471 542 41,000  Level FlightAware ADS-B
Mon 02:48:35 PM 37.1167 -104.2280 122° Southeast 479 551 41,000  Level FlightAware ADS-B
Mon 02:49:09 PM 37.0760 -104.1480 123° Southeast 478 550 41,000  Level FlightAware ADS-B
Mon 02:49:50 PM 37.0280 -104.0540 123° Southeast 479 551 41,000  Level FlightAware ADS-B
Mon 02:50:48 PM 36.9580 -103.9170 123° Southeast 477 549 41,000  Level FlightAware ADS-B
Mon 02:51:33 PM 36.9053 -103.8150 123° Southeast 477 549 41,000  Level FlightAware ADS-B
Mon 02:52:03 PM 36.8691 -103.7440 122° Southeast 474 545 41,000  Level FlightAware ADS-B
Mon 02:52:49 PM 36.8183 -103.6464 122° Southeast 471 542 41,000  Level Albuquerque Center
Mon 02:53:51 PM 36.7503 -103.5153 123° Southeast 470 541 41,000  Level Albuquerque Center
Mon 02:54:52 PM 36.6819 -103.3839 123° Southeast 472 543 41,000  Level Albuquerque Center
Mon 02:55:54 PM 36.6081 -103.2425 123° Southeast 471 542 41,000  Level Albuquerque Center
Mon 02:56:56 PM 36.5361 -103.1047 123° Southeast 471 542 41,000  Level Albuquerque Center
Mon 02:57:58 PM 36.4519 -102.9444 123° Southeast 470 541 41,000  Level Albuquerque Center
Mon 02:59:00 PM 36.3886 -102.8244 123° Southeast 470 541 41,000  Level Albuquerque Center
Mon 03:00:01 PM 36.3167 -102.6889 123° Southeast 470 541 41,000  Level Albuquerque Center
Mon 03:01:03 PM 36.2308 -102.5281 123° Southeast 467 537 41,000  Level Albuquerque Center
Mon 03:02:05 PM 36.1600 -102.3964 124° Southeast 463 533 41,000  Level Albuquerque Center
Mon 03:07:40 PM 35.8080 -101.6390 124° Southeast 462 532 41,000  Level FlightAware ADS-B
Mon 03:08:13 PM 35.7850 -101.5550 109° East 462 532 41,000  Level FlightAware ADS-B
Mon 03:08:50 PM 35.7610 -101.4650 108° East 463 533 41,000  Level FlightAware ADS-B
Mon 03:09:22 PM 35.7390 -101.3860 109° East 463 533 41,000  Level FlightAware ADS-B
Mon 03:09:59 PM 35.7090 -101.2950 112° Southeast 460 529 41,000  Level FlightAware ADS-B
Mon 03:10:40 PM 35.6590 -101.2090 126° Southeast 456 525 41,000  Level FlightAware ADS-B
Mon 03:11:10 PM 35.6210 -101.1450 126° Southeast 456 525 41,000  Level FlightAware ADS-B
Mon 03:11:52 PM 35.5710 -101.0630 127° Southeast 457 526 41,000  Level FlightAware ADS-B
Mon 03:12:27 PM 35.5240 -100.9850 127° Southeast 457 526 41,000  Level FlightAware ADS-B
Mon 03:13:01 PM 35.4810 -100.9120 126° Southeast 457 526 41,000  Level FlightAware ADS-B
Mon 03:13:33 PM 35.4400 -100.8450 127° Southeast 457 526 41,000  Level FlightAware ADS-B
Mon 03:14:30 PM 35.3760 -100.7370 126° Southeast 459 528 41,000  Level FlightAware ADS-B
Mon 03:15:33 PM 35.2910 -100.5990 127° Southeast 459 528 41,000  Level FlightAware ADS-B
Mon 03:16:10 PM 35.2430 -100.5200 127° Southeast 461 531 41,000  Level FlightAware ADS-B
Mon 03:16:44 PM 35.2090 -100.4630 126° Southeast 461 531 41,000  Level FlightAware ADS-B
Mon 03:17:21 PM 35.1540 -100.3730 127° Southeast 460 529 41,000  Level FlightAware ADS-B
Mon 03:17:56 PM 35.1080 -100.2980 127° Southeast 458 527 41,000  Level FlightAware ADS-B
Mon 03:18:31 PM 35.0640 -100.2270 127° Southeast 457 526 41,000  Level FlightAware ADS-B
Mon 03:19:07 PM 35.0170 -100.1510 127° Southeast 457 526 41,000  Level FlightAware ADS-B
Mon 03:19:40 PM 34.9760 -100.0840 127° Southeast 457 526 41,000  Level FlightAware ADS-B
Mon 03:20:16 PM 34.9310 -100.0110 127° Southeast 456 525 41,000  Level FlightAware ADS-B
Mon 03:20:47 PM 34.8910 -99.9460 127° Southeast 456 525 41,000  Level FlightAware ADS-B
Mon 03:21:22 PM 34.8490 -99.8790 127° Southeast 455 524 41,000  Level FlightAware ADS-B
Mon 03:22:01 PM 34.7970 -99.7950 127° Southeast 456 525 41,000  Level FlightAware ADS-B
Mon 03:22:38 PM 34.7500 -99.7190 127° Southeast 457 526 41,000  Level FlightAware ADS-B
Mon 03:23:11 PM 34.7080 -99.6530 128° Southeast 456 525 41,000  Level FlightAware ADS-B
Mon 03:23:44 PM 34.6650 -99.5830 127° Southeast 456 525 41,000  Level FlightAware ADS-B
Mon 03:24:22 PM 34.6180 -99.5080 127° Southeast 456 525 41,000  Level FlightAware ADS-B
Mon 03:24:56 PM 34.5740 -99.4380 127° Southeast 456 525 41,000  Level FlightAware ADS-B
Mon 03:25:29 PM 34.5320 -99.3720 128° Southeast 456 525 41,000  Level FlightAware ADS-B
Mon 03:26:05 PM 34.4860 -99.2970 127° Southeast 455 524 41,000  Level FlightAware ADS-B
Mon 03:26:42 PM 34.4380 -99.2220 128° Southeast 455 524 41,000 -86 Level FlightAware ADS-B
Mon 03:27:15 PM 34.3960 -99.1560 128° Southeast 455 524 40,900 -522 Descending FlightAware ADS-B
Mon 03:27:51 PM 34.3510 -99.0840 127° Southeast 457 526 40,400 -917 Descending FlightAware ADS-B
Mon 03:28:27 PM 34.3040 -99.0110 128° Southeast 457 526 39,800 -971 Descending FlightAware ADS-B
Mon 03:28:59 PM 34.2620 -98.9450 128° Southeast 457 526 39,300 -957 Descending FlightAware ADS-B
Mon 03:29:36 PM 34.2190 -98.8770 127° Southeast 463 533 38,700 -986 Descending FlightAware ADS-B
Mon 03:30:12 PM 34.1680 -98.7970 128° Southeast 467 537 38,100 -1,417 Descending FlightAware ADS-B
Mon 03:30:48 PM 34.1220 -98.7250 128° Southeast 465 535 37,000 -2,206 Descending FlightAware ADS-B
Mon 03:31:20 PM 34.0810 -98.6610 128° Southeast 466 536 35,600 -3,039 Descending FlightAware ADS-B
Mon 03:32:05 PM 34.0180 -98.5640 128° Southeast 476 548 33,100 -3,525 Descending FlightAware ADS-B
Mon 03:32:40 PM 33.9700 -98.4890 128° Southeast 483 556 30,900 -3,672 Descending FlightAware ADS-B
Mon 03:33:12 PM 33.9260 -98.4210 128° Southeast 487 560 29,000 -3,304 Descending FlightAware ADS-B
Mon 03:33:49 PM 33.8750 -98.3420 128° Southeast 479 551 27,100 -2,743 Descending FlightAware ADS-B
Mon 03:34:22 PM 33.8370 -98.2840 128° Southeast 462 532 25,800 -2,750 Descending FlightAware ADS-B
Mon 03:35:01 PM 33.7820 -98.1990 128° Southeast 435 501 23,800 -2,829 Descending FlightAware ADS-B
Mon 03:35:32 PM 33.7460 -98.1420 127° Southeast 429 494 22,500 -2,597 Descending FlightAware ADS-B
Mon 03:36:08 PM 33.7020 -98.0740 128° Southeast 421 484 20,900 -2,743 Descending FlightAware ADS-B
Mon 03:36:42 PM 33.6600 -98.0100 128° Southeast 411 473 19,300 -2,571 Descending FlightAware ADS-B
Mon 03:37:18 PM 33.6180 -97.9480 129° Southeast 389 448 17,900 -2,417 Descending FlightAware ADS-B
Mon 03:37:54 PM 33.5800 -97.8890 128° Southeast 373 429 16,400 -2,400 Descending FlightAware ADS-B
Mon 03:38:28 PM 33.5440 -97.8330 128° Southeast 367 422 15,100 -2,382 Descending FlightAware ADS-B
Mon 03:39:02 PM 33.5050 -97.7830 133° Southeast 362 417 13,700 -2,455 Descending FlightAware ADS-B
Mon 03:39:34 PM 33.4670 -97.7390 136° Southeast 356 410 12,400 -2,057 Descending FlightAware ADS-B
Mon 03:40:12 PM 33.4230 -97.6880 136° Southeast 338 389 11,300 -1,297 Descending FlightAware ADS-B
Mon 03:40:48 PM 33.3850 -97.6430 135° Southeast 310 357 10,800 -971 Descending FlightAware ADS-B
Mon 03:41:20 PM 33.3530 -97.6050 135° Southeast 296 341 10,200 -1,286 Descending FlightAware ADS-B
Mon 03:41:44 PM 33.3290 -97.5770 136° Southeast 292 336 9,600 -1,500 Descending FlightAware ADS-B
Mon 03:42:04 PM 33.3110 -97.5560 136° Southeast 292 336 9,100 -1,571 Descending FlightAware ADS-B
Mon 03:42:26 PM 33.2930 -97.5290 129° Southeast 288 331 8,500 -1,600 Descending FlightAware ADS-B
Mon 03:42:34 PM 33.2870 -97.5170 121° Southeast 287 330 8,300 -1,500 Descending FlightAware ADS-B
Mon 03:42:46 PM 33.2810 -97.4990 112° Southeast 285 328 8,000 -1,500 Descending FlightAware ADS-B
Mon 03:43:06 PM 33.2720 -97.4700 110° East 285 328 7,500 -1,565 Descending FlightAware ADS-B
Mon 03:43:32 PM 33.2610 -97.4310 109° East 283 326 6,800 -1,660 Descending FlightAware ADS-B
Mon 03:43:53 PM 33.2520 -97.4010 110° East 281 323 6,200 -1,500 Descending FlightAware ADS-B
Mon 03:44:12 PM 33.2430 -97.3730 111° Southeast 278 320 5,800 -1,538 Descending FlightAware ADS-B
Mon 03:44:32 PM 33.2350 -97.3450 109° East 276 318 5,200 -1,286 Descending FlightAware ADS-B
Mon 03:44:54 PM 33.2250 -97.3130 110° East 274 315 4,900 -429 Descending FlightAware ADS-B
Mon 03:45:14 PM 33.2170 -97.2850 109° East 272 313 4,900  Level FlightAware ADS-B
Mon 03:45:38 PM 33.2060 -97.2510 111° Southeast 264 304 4,900  Level FlightAware ADS-B
Mon 03:45:58 PM 33.1980 -97.2240 109° East 266 306 4,900  Level FlightAware ADS-B
Mon 03:46:10 PM 33.1900 -97.2100 124° Southeast 261 300 4,900  Level FlightAware ADS-B
Mon 03:46:18 PM 33.1830 -97.2020 136° Southeast 260 299 4,900  Level FlightAware ADS-B
Mon 03:46:30 PM 33.1710 -97.1900 140° Southeast 256 295 4,900  Level FlightAware ADS-B
Mon 03:46:52 PM 33.1530 -97.1700 137° Southeast 241 277 4,900 -176 Level FlightAware ADS-B
Mon 03:47:04 PM 33.1430 -97.1600 140° Southeast 235 270 4,800 -1,105 Descending FlightAware ADS-B
Mon 03:47:30 PM 33.1220 -97.1380 139° Southeast 221 254 4,200 -1,500 Descending FlightAware ADS-B
Mon 03:47:48 PM 33.1090 -97.1240 138° Southeast 221 254 3,700 -1,737 Descending FlightAware ADS-B
Mon 03:48:08 PM 33.0930 -97.1080 140° Southeast 223 257 3,100 -1,091 Descending FlightAware ADS-B
Mon 03:48:32 PM 33.0750 -97.0890 139° Southeast 201 231 2,900 -300 Descending FlightAware ADS-B
Mon 03:48:48 PM 33.0650 -97.0780 137° Southeast 187 215 2,900  Level FlightAware ADS-B
Mon 03:49:12 PM 33.0490 -97.0620 140° Southeast 180 207 2,900 -300 Level FlightAware ADS-B
Mon 03:49:28 PM 33.0380 -97.0540 149° Southeast 178 205 2,700 -600 Descending FlightAware ADS-B
Mon 03:49:32 PM 33.0350 -97.0540 180° South 179 206 2,700 -600 Level FlightAware ADS-B
Mon 03:49:38 PM 33.0310 -97.0540 180° South 179 206 2,600 -857 Descending FlightAware ADS-B
Mon 03:50:00 PM 33.0120 -97.0540 180° South 177 204 2,300 -913 Descending FlightAware ADS-B
Mon 03:50:24 PM 32.9920 -97.0540 180° South 166 191 1,900 -808 Descending FlightAware ADS-B
Mon 03:50:52 PM 32.9730 -97.0540 180° South 141 162 1,600 -682 Descending FlightAware ADS-B
Mon 03:51:08 PM 32.9630 -97.0540 180° South 136 157 1,400 -321 Descending FlightAware ADS-B
Mon 03:51:48 PM 32.9400 -97.0540 180° South 135 155 1,300 -150 Descending FlightAware ADS-B
Mon 03:59:00 PM 32.8968 -97.0380 140° Southeast  Level Estimated
Mon 04:00:00 PM 32.8968 -97.0380 140° Southeast  Level Estimated

Login

Don't have an account? Register now (free) for customized features, flight alerts, and more!